createdAt,value
2022-12-11T00:00:56.685Z,62.92
2022-12-11T00:03:24.443Z,62.07
2022-12-11T00:05:52.158Z,61.84
2022-12-11T00:08:19.869Z,61.73
2022-12-11T00:10:49.521Z,61.46
2022-12-11T00:13:17.237Z,61.42
2022-12-11T00:15:46.350Z,61.00
2022-12-11T00:18:14.761Z,61.38
2022-12-11T00:20:42.546Z,61.35
2022-12-11T00:23:10.915Z,61.00
2022-12-11T00:25:43.934Z,62.08
2022-12-11T00:28:11.710Z,61.82
2022-12-11T00:30:41.187Z,61.53
2022-12-11T00:33:11.043Z,61.83
2022-12-11T00:35:40.023Z,61.58
2022-12-11T00:38:07.744Z,61.40
2022-12-11T00:40:35.585Z,61.23
2022-12-11T00:43:03.358Z,61.17
2022-12-11T00:45:31.137Z,61.57
2022-12-11T00:47:58.912Z,62.21
2022-12-11T00:50:28.022Z,62.51
2022-12-11T00:52:58.166Z,62.48
2022-12-11T00:55:28.062Z,63.00
2022-12-11T00:57:56.556Z,63.70
2022-12-11T01:00:24.318Z,63.77
2022-12-11T01:02:52.226Z,64.16
2022-12-11T01:05:20.092Z,64.23
2022-12-11T01:07:49.270Z,64.73
2022-12-11T01:10:25.410Z,64.74
2022-12-11T01:12:54.811Z,63.40
2022-12-11T01:15:23.810Z,62.80
2022-12-11T01:17:52.110Z,62.24
2022-12-11T01:20:21.012Z,61.87
2022-12-11T01:22:52.849Z,63.03
2022-12-11T01:25:20.818Z,63.21
2022-12-11T01:27:50.961Z,63.41
2022-12-11T01:30:19.914Z,63.33
2022-12-11T01:32:47.990Z,63.52
2022-12-11T01:35:16.089Z,63.48
2022-12-11T01:37:44.060Z,63.77
2022-12-11T01:40:15.854Z,62.88
2022-12-11T01:42:43.852Z,62.46
2022-12-11T01:45:27.267Z,62.54
2022-12-11T01:47:58.884Z,62.88
2022-12-11T01:50:27.146Z,63.15
2022-12-11T01:52:54.941Z,63.15
2022-12-11T01:55:24.748Z,63.08
2022-12-11T01:57:54.462Z,62.51
2022-12-11T02:00:23.030Z,62.21
2022-12-11T02:02:52.967Z,62.92
2022-12-11T02:05:21.973Z,63.40
2022-12-11T02:07:55.080Z,63.18
2022-12-11T02:10:29.231Z,63.01
2022-12-11T02:13:02.622Z,62.77
2022-12-11T02:15:37.196Z,63.26
2022-12-11T02:18:16.079Z,64.31
2022-12-11T02:20:49.462Z,64.69
2022-12-11T02:23:35.189Z,64.96
2022-12-11T02:26:21.740Z,64.58
2022-12-11T02:28:55.763Z,64.05
2022-12-11T02:31:28.500Z,64.76
2022-12-11T02:34:02.351Z,65.08
2022-12-11T02:36:34.877Z,65.52
2022-12-11T02:39:04.545Z,65.79
2022-12-11T02:41:34.653Z,66.10
2022-12-11T02:44:05.219Z,65.89
2022-12-11T02:46:35.991Z,65.43
2022-12-11T02:49:06.812Z,65.75
2022-12-11T02:51:37.604Z,65.64
2022-12-11T02:54:08.720Z,65.11
2022-12-11T02:56:43.141Z,64.13
2022-12-11T02:59:17.124Z,64.04
2022-12-11T03:01:45.133Z,64.04
2022-12-11T03:04:13.008Z,63.49
2022-12-11T03:06:45.057Z,63.47
2022-12-11T03:09:12.770Z,63.29
2022-12-11T03:11:40.546Z,62.76
2022-12-11T03:14:09.277Z,62.58
2022-12-11T03:16:40.333Z,62.77
2022-12-11T03:19:15.464Z,62.58
2022-12-11T03:21:51.359Z,62.30
2022-12-11T03:24:23.468Z,62.08
2022-12-11T03:26:57.271Z,62.14
2022-12-11T03:29:31.459Z,62.67
2022-12-11T03:32:08.173Z,63.27
2022-12-11T03:34:43.350Z,63.55
2022-12-11T03:37:12.804Z,64.15
2022-12-11T03:39:44.632Z,64.40
2022-12-11T03:42:15.400Z,64.28
2022-12-11T03:44:48.057Z,64.13
2022-12-11T03:47:20.968Z,64.27
2022-12-11T03:49:50.708Z,65.30
2022-12-11T03:52:19.482Z,65.57
2022-12-11T03:54:50.730Z,65.39
2022-12-11T03:57:22.561Z,65.41
2022-12-11T03:59:51.481Z,66.01
2022-12-11T04:02:20.538Z,66.68
2022-12-11T04:04:48.270Z,67.14
2022-12-11T04:07:16.047Z,67.48
2022-12-11T04:09:43.731Z,67.45
2022-12-11T04:12:11.446Z,67.65
2022-12-11T04:15:00.488Z,66.97
2022-12-11T04:17:47.572Z,66.96
2022-12-11T04:20:32.963Z,66.89
2022-12-11T04:23:14.838Z,67.16
2022-12-11T04:25:42.604Z,67.35
2022-12-11T04:28:10.332Z,66.94
2022-12-11T04:30:37.995Z,67.43
2022-12-11T04:33:07.233Z,67.32
2022-12-11T04:35:34.919Z,66.94
2022-12-11T04:38:02.620Z,66.92
2022-12-11T04:40:30.376Z,66.55
2022-12-11T04:42:58.044Z,66.48
2022-12-11T04:45:25.724Z,66.90
2022-12-11T04:47:53.354Z,66.99
2022-12-11T04:50:22.500Z,66.83
2022-12-11T04:52:50.214Z,67.02
2022-12-11T04:55:18.100Z,66.96
2022-12-11T04:57:45.832Z,67.13
2022-12-11T05:00:14.517Z,67.04
2022-12-11T05:02:43.682Z,66.79
2022-12-11T05:05:12.525Z,65.59
2022-12-11T05:07:42.011Z,65.98
2022-12-11T05:10:10.723Z,65.92
2022-12-11T05:12:38.502Z,66.00
2022-12-11T05:15:07.249Z,65.89
2022-12-11T05:17:35.512Z,65.92
2022-12-11T05:20:03.216Z,65.70
2022-12-11T05:22:31.925Z,65.41
2022-12-11T05:25:01.261Z,65.37
2022-12-11T05:27:28.959Z,64.77
2022-12-11T05:29:59.503Z,64.69
2022-12-11T05:32:27.607Z,64.90
2022-12-11T05:34:55.224Z,64.96
2022-12-11T05:37:23.255Z,65.28
2022-12-11T05:39:50.927Z,65.61
2022-12-11T05:42:24.007Z,66.04
2022-12-11T05:44:54.917Z,65.93
2022-12-11T05:47:22.633Z,65.66
2022-12-11T05:49:50.988Z,66.17
2022-12-11T05:52:18.862Z,66.29
2022-12-11T05:54:49.662Z,66.57
2022-12-11T05:57:17.546Z,66.56
2022-12-11T05:59:46.623Z,66.09
2022-12-11T06:02:14.492Z,66.46
2022-12-11T06:04:42.362Z,66.18
2022-12-11T06:07:10.130Z,66.17
2022-12-11T06:09:37.837Z,65.87
2022-12-11T06:12:05.868Z,65.78
2022-12-11T06:14:33.571Z,66.16
2022-12-11T06:17:02.607Z,65.83
2022-12-11T06:19:36.422Z,65.72
2022-12-11T06:22:04.909Z,65.96
2022-12-11T06:24:32.618Z,66.13
2022-12-11T06:27:00.309Z,66.82
2022-12-11T06:29:27.959Z,67.36
2022-12-11T06:31:55.753Z,68.07
2022-12-11T06:34:24.858Z,68.31
2022-12-11T06:36:52.583Z,68.69
2022-12-11T06:39:20.356Z,68.11
2022-12-11T06:41:48.291Z,67.16
2022-12-11T06:44:16.145Z,66.44
2022-12-11T06:46:43.840Z,66.32
2022-12-11T06:49:11.612Z,66.37
2022-12-11T06:51:40.830Z,67.16
2022-12-11T06:54:08.594Z,67.52
2022-12-11T06:56:36.491Z,67.53
2022-12-11T06:59:07.356Z,67.42
2022-12-11T07:01:35.456Z,67.74
2022-12-11T07:04:03.188Z,67.38
2022-12-11T07:06:31.185Z,68.04
2022-12-11T07:09:00.334Z,67.64
2022-12-11T07:11:29.228Z,67.20
2022-12-11T07:14:00.041Z,67.50
2022-12-11T07:16:28.588Z,67.19
2022-12-11T07:18:56.337Z,66.81
2022-12-11T07:21:24.071Z,67.42
2022-12-11T07:23:52.099Z,67.38
2022-12-11T07:26:23.102Z,67.50
2022-12-11T07:28:51.186Z,67.98
2022-12-11T07:31:22.969Z,68.28
2022-12-11T07:33:54.976Z,68.38
2022-12-11T07:36:22.827Z,67.89
2022-12-11T07:38:50.533Z,68.59
2022-12-11T07:41:18.946Z,68.64
2022-12-11T07:43:49.201Z,68.51
2022-12-11T07:46:19.070Z,68.15
2022-12-11T07:48:48.381Z,68.19
2022-12-11T07:51:18.075Z,67.99
2022-12-11T07:53:47.252Z,67.88
2022-12-11T07:56:15.613Z,68.64
2022-12-11T07:58:43.914Z,68.78
2022-12-11T08:01:14.512Z,68.08
2022-12-11T08:03:42.536Z,67.13
2022-12-11T08:06:10.485Z,66.70
2022-12-11T08:08:38.524Z,66.54
2022-12-11T08:11:08.524Z,67.04
2022-12-11T08:13:36.364Z,67.91
2022-12-11T08:16:05.769Z,68.24
2022-12-11T08:18:36.149Z,68.83
2022-12-11T08:21:06.694Z,68.44
2022-12-11T08:23:34.463Z,68.26
2022-12-11T08:26:03.880Z,67.18
2022-12-11T08:28:31.737Z,67.09
2022-12-11T08:31:00.552Z,66.70
2022-12-11T08:33:28.336Z,66.51
2022-12-11T08:35:57.456Z,65.68
2022-12-11T08:38:25.803Z,65.28
2022-12-11T08:40:53.529Z,65.59
2022-12-11T08:43:21.315Z,65.73
2022-12-11T08:45:49.350Z,65.29
2022-12-11T08:48:17.160Z,64.56
2022-12-11T08:50:44.891Z,64.49
2022-12-11T08:53:13.915Z,63.82
2022-12-11T08:55:42.097Z,63.53
2022-12-11T08:58:09.860Z,63.82
2022-12-11T09:00:37.790Z,64.13
2022-12-11T09:03:11.211Z,64.65
2022-12-11T09:05:40.824Z,64.74
2022-12-11T09:08:08.659Z,65.12
2022-12-11T09:10:37.861Z,65.10
2022-12-11T09:13:05.672Z,65.85
2022-12-11T09:15:33.410Z,65.78
2022-12-11T09:18:01.247Z,65.71
2022-12-11T09:20:29.127Z,65.61
2022-12-11T09:22:56.912Z,65.24
2022-12-11T09:25:25.230Z,64.36
2022-12-11T09:27:54.381Z,63.94
2022-12-11T09:30:22.169Z,63.58
2022-12-11T09:32:49.889Z,63.56
2022-12-11T09:35:17.796Z,63.32
2022-12-11T09:37:47.590Z,62.95
2022-12-11T09:40:15.638Z,62.81
2022-12-11T09:42:54.105Z,62.66
2022-12-11T09:45:23.272Z,62.70
2022-12-11T09:47:54.452Z,62.77
2022-12-11T09:50:25.213Z,62.82
2022-12-11T09:53:05.563Z,62.94
2022-12-11T09:55:44.218Z,62.81
2022-12-11T09:58:19.970Z,63.12
2022-12-11T10:00:51.160Z,63.38
2022-12-11T10:03:50.209Z,62.78
2022-12-11T10:06:25.142Z,62.82
2022-12-11T10:09:01.992Z,62.98
2022-12-11T10:11:56.319Z,62.88
2022-12-11T10:14:32.763Z,62.72
2022-12-11T10:17:08.977Z,62.72
2022-12-11T10:19:37.406Z,62.85
2022-12-11T10:22:05.256Z,62.93
2022-12-11T10:27:32.506Z,62.52
2022-12-11T10:30:13.907Z,61.75
2022-12-11T10:32:51.388Z,61.81
2022-12-11T10:35:30.268Z,61.56
2022-12-11T10:38:03.619Z,61.41
2022-12-11T10:40:33.609Z,61.65
2022-12-11T10:43:01.364Z,62.10
2022-12-11T10:45:29.215Z,62.10
2022-12-11T10:48:06.119Z,61.88
2022-12-11T10:50:34.276Z,62.25
2022-12-11T10:53:02.701Z,62.39
2022-12-11T10:55:36.044Z,62.88
2022-12-11T10:58:06.675Z,62.77
2022-12-11T11:00:37.567Z,62.83
2022-12-11T11:03:19.652Z,62.89
2022-12-11T11:05:49.554Z,62.33
2022-12-11T11:08:20.370Z,62.52
2022-12-11T11:10:53.169Z,62.60
2022-12-11T11:13:24.093Z,62.75
2022-12-11T11:16:00.228Z,62.89
2022-12-11T11:18:31.998Z,63.35
2022-12-11T11:21:00.622Z,63.15
2022-12-11T11:23:29.391Z,62.78
2022-12-11T11:26:00.332Z,62.94
2022-12-11T11:28:30.834Z,62.79
2022-12-11T11:31:03.747Z,63.01
2022-12-11T11:33:35.523Z,63.06
2022-12-11T11:36:06.545Z,62.94
2022-12-11T11:38:38.508Z,63.35
2022-12-11T11:41:16.662Z,63.92
2022-12-11T11:43:50.649Z,63.73
2022-12-11T11:46:24.677Z,63.45
2022-12-11T11:49:07.203Z,63.46
2022-12-11T11:51:38.681Z,63.15
2022-12-11T11:54:16.408Z,63.00
2022-12-11T11:56:45.508Z,62.90
2022-12-11T11:59:20.370Z,63.26
2022-12-11T12:01:48.579Z,63.04
2022-12-11T12:04:17.714Z,63.20
2022-12-11T12:07:01.433Z,62.94
2022-12-11T12:09:43.563Z,63.09
2022-12-11T12:12:25.472Z,63.09
2022-12-11T12:15:03.182Z,63.26
2022-12-11T12:17:38.789Z,63.51
2022-12-11T12:20:18.545Z,63.12
2022-12-11T12:22:59.080Z,62.80
2022-12-11T12:25:34.242Z,62.72
2022-12-11T12:28:14.328Z,62.65
2022-12-11T12:30:55.349Z,62.79
2022-12-11T12:33:32.755Z,63.11
2022-12-11T12:36:12.176Z,62.74
2022-12-11T12:38:53.781Z,62.41
2022-12-11T12:41:25.850Z,62.35
2022-12-11T12:44:11.529Z,62.26
2022-12-11T12:46:50.148Z,62.15
2022-12-11T12:49:26.274Z,62.06
2022-12-11T12:51:56.649Z,62.06
2022-12-11T12:54:28.043Z,62.25
2022-12-11T12:56:56.916Z,62.24
2022-12-11T12:59:26.143Z,62.60
2022-12-11T13:01:57.972Z,63.49
2022-12-11T13:04:57.881Z,63.45
2022-12-11T13:07:31.058Z,63.38
2022-12-11T13:10:23.709Z,63.53
2022-12-11T13:12:52.399Z,64.11
2022-12-11T13:15:36.772Z,64.37
2022-12-11T13:18:26.073Z,64.47
2022-12-11T13:20:53.770Z,64.10
2022-12-11T13:23:29.087Z,63.68
2022-12-11T13:25:59.039Z,63.27
2022-12-11T13:28:31.324Z,63.34
2022-12-11T13:31:02.068Z,63.77
2022-12-11T13:33:31.005Z,63.26
2022-12-11T13:36:26.766Z,62.97
2022-12-11T13:39:01.026Z,63.04
2022-12-11T13:41:29.575Z,62.97
2022-12-11T13:43:58.921Z,62.71
2022-12-11T13:46:30.361Z,62.43
2022-12-11T13:49:01.236Z,62.36
2022-12-11T13:51:31.123Z,62.69
2022-12-11T13:54:17.222Z,63.66
2022-12-11T13:56:59.543Z,63.96
2022-12-11T13:59:30.891Z,64.42
2022-12-11T14:02:02.270Z,64.72
2022-12-11T14:04:31.337Z,64.58
2022-12-11T14:07:00.022Z,64.85
2022-12-11T14:09:29.720Z,64.53
2022-12-11T14:11:59.285Z,64.65
2022-12-11T14:14:39.764Z,64.48
2022-12-11T14:17:07.871Z,64.83
2022-12-11T14:19:35.619Z,65.38
2022-12-11T14:22:05.601Z,65.67
2022-12-11T14:24:34.758Z,65.17
2022-12-11T14:27:05.510Z,65.16
2022-12-11T14:29:34.798Z,64.60
2022-12-11T14:32:06.200Z,64.30
2022-12-11T14:34:38.198Z,64.07
2022-12-11T14:37:08.208Z,63.81
2022-12-11T14:39:42.252Z,63.45
2022-12-11T14:42:15.433Z,63.21
2022-12-11T14:44:50.837Z,63.47
2022-12-11T14:47:22.797Z,63.63
2022-12-11T14:49:56.527Z,63.59
2022-12-11T14:52:29.135Z,63.65
2022-12-11T14:55:05.284Z,63.44
2022-12-11T14:57:34.532Z,63.17
2022-12-11T15:00:03.206Z,63.05
2022-12-11T15:02:33.218Z,63.62
2022-12-11T15:05:06.830Z,63.97
2022-12-11T15:07:35.595Z,64.27
2022-12-11T15:10:05.678Z,64.43
2022-12-11T15:12:33.625Z,63.93
2022-12-11T15:15:05.563Z,63.82
2022-12-11T15:17:34.617Z,63.72
2022-12-11T15:20:07.369Z,63.74
2022-12-11T15:22:36.424Z,64.19
2022-12-11T15:25:06.248Z,64.66
2022-12-11T15:27:36.835Z,64.58
2022-12-11T15:30:26.954Z,64.50
2022-12-11T15:33:03.857Z,64.45
2022-12-11T15:35:41.551Z,63.82
2022-12-11T15:38:31.328Z,63.93
2022-12-11T15:41:00.574Z,64.47
2022-12-11T15:43:29.257Z,64.65
2022-12-11T15:45:57.530Z,64.43
2022-12-11T15:48:25.401Z,64.85
2022-12-11T15:50:53.156Z,64.95
2022-12-11T15:53:20.886Z,64.71
2022-12-11T15:55:48.616Z,64.58
2022-12-11T15:58:21.034Z,64.33
2022-12-11T16:00:48.708Z,64.20
2022-12-11T16:03:18.549Z,64.73
2022-12-11T16:05:46.786Z,64.88
2022-12-11T16:08:16.068Z,64.77
2022-12-11T16:10:44.287Z,64.60
2022-12-11T16:13:23.233Z,64.47
2022-12-11T16:15:53.668Z,64.21
2022-12-11T16:18:24.163Z,63.95
2022-12-11T16:20:52.840Z,64.66
2022-12-11T16:23:21.328Z,64.14
2022-12-11T16:25:49.402Z,64.29
2022-12-11T16:28:20.806Z,63.99
2022-12-11T16:30:50.376Z,63.87
2022-12-11T16:33:18.576Z,63.54
2022-12-11T16:35:46.359Z,63.09
2022-12-11T16:38:14.099Z,63.11
2022-12-11T16:40:42.484Z,62.81
2022-12-11T16:43:11.340Z,63.38
2022-12-11T16:45:39.128Z,63.79
2022-12-11T16:48:08.311Z,63.80
2022-12-11T16:50:36.480Z,64.07
2022-12-11T16:53:04.750Z,63.92
2022-12-11T16:55:32.468Z,63.85
2022-12-11T16:58:00.080Z,64.16
2022-12-11T17:00:27.949Z,64.93
2022-12-11T17:02:55.933Z,65.62
2022-12-11T17:05:25.030Z,65.90
2022-12-11T17:07:52.747Z,66.01
2022-12-11T17:10:20.552Z,65.69
2022-12-11T17:12:48.263Z,65.56
2022-12-11T17:15:15.986Z,65.27
2022-12-11T17:17:44.141Z,65.81
2022-12-11T17:20:12.362Z,66.29
2022-12-11T17:22:41.486Z,66.47
2022-12-11T17:25:09.987Z,67.07
2022-12-11T17:27:37.835Z,67.52
2022-12-11T17:30:06.211Z,68.04
2022-12-11T17:32:33.940Z,67.96
2022-12-11T17:35:01.705Z,67.79
2022-12-11T17:37:29.458Z,67.55
2022-12-11T17:39:58.463Z,67.86
2022-12-11T17:42:26.227Z,68.02
2022-12-11T17:44:54.236Z,68.11
2022-12-11T17:47:22.010Z,67.79
2022-12-11T17:49:49.731Z,67.22
2022-12-11T17:52:17.439Z,67.13
2022-12-11T17:54:45.247Z,66.67
2022-12-11T17:57:14.353Z,66.88
2022-12-11T17:59:42.140Z,67.41
2022-12-11T18:02:10.490Z,67.55
2022-12-11T18:04:39.102Z,67.15
2022-12-11T18:07:07.216Z,66.52
2022-12-11T18:09:34.993Z,65.82
2022-12-11T18:12:02.725Z,65.42
2022-12-11T18:14:31.926Z,64.97
2022-12-11T18:17:00.080Z,65.48
2022-12-11T18:19:27.962Z,65.37
2022-12-11T18:21:56.113Z,64.78
2022-12-11T18:24:25.809Z,64.67
2022-12-11T18:26:53.516Z,64.84
2022-12-11T18:29:21.360Z,64.52
2022-12-11T18:31:50.483Z,64.27
2022-12-11T18:34:18.258Z,64.20
2022-12-11T18:36:47.996Z,63.98
2022-12-11T18:39:16.349Z,64.03
2022-12-11T18:41:45.632Z,64.36
2022-12-11T18:44:22.464Z,64.63
2022-12-11T18:46:51.792Z,65.70
2022-12-11T18:49:28.746Z,66.00
2022-12-11T18:51:58.194Z,66.55
2022-12-11T18:54:25.891Z,66.75
2022-12-11T18:56:53.718Z,66.57
2022-12-11T18:59:21.510Z,66.54
2022-12-11T19:01:49.327Z,65.92
2022-12-11T19:04:18.864Z,65.78
2022-12-11T19:06:46.597Z,66.21
2022-12-11T19:09:14.356Z,65.81
2022-12-11T19:11:43.020Z,65.89
2022-12-11T19:14:11.714Z,65.78
2022-12-11T19:16:41.581Z,66.03
2022-12-11T19:19:13.220Z,66.24
2022-12-11T19:21:42.488Z,66.78
2022-12-11T19:24:15.004Z,67.18
2022-12-11T19:26:43.023Z,67.40
2022-12-11T19:29:11.354Z,67.91
2022-12-11T19:31:39.397Z,67.90
2022-12-11T19:34:07.309Z,67.83
2022-12-11T19:36:36.694Z,67.54
2022-12-11T19:39:11.336Z,66.92
2022-12-11T19:41:41.035Z,66.13
2022-12-11T19:44:09.002Z,65.94
2022-12-11T19:46:37.162Z,65.73
2022-12-11T19:49:06.077Z,65.64
2022-12-11T19:51:38.270Z,65.42
2022-12-11T19:54:08.622Z,65.22
2022-12-11T19:56:36.876Z,65.18
2022-12-11T19:59:08.426Z,64.81
2022-12-11T20:01:37.989Z,64.60
2022-12-11T20:04:08.255Z,64.64
2022-12-11T20:06:37.704Z,64.83
2022-12-11T20:09:11.070Z,65.41
2022-12-11T20:11:40.119Z,65.55
2022-12-11T20:14:08.163Z,65.30
2022-12-11T20:19:23.788Z,65.37
2022-12-11T20:21:51.477Z,66.39
2022-12-11T20:24:20.809Z,66.85
2022-12-11T20:26:50.396Z,67.21
2022-12-11T20:29:18.126Z,67.47
2022-12-11T20:31:46.722Z,67.34
2022-12-11T20:34:14.502Z,67.38
2022-12-11T20:36:42.483Z,67.86
2022-12-11T20:39:10.303Z,67.45
2022-12-11T20:41:39.534Z,67.41
2022-12-11T20:44:07.562Z,67.31
2022-12-11T20:46:35.280Z,67.22
2022-12-11T20:49:03.221Z,66.89
2022-12-11T20:51:32.623Z,67.02
2022-12-11T20:54:01.237Z,66.45
2022-12-11T20:56:31.719Z,65.83
2022-12-11T20:59:01.441Z,65.91
2022-12-11T21:01:31.362Z,65.73
2022-12-11T21:04:00.381Z,65.70
2022-12-11T21:06:31.627Z,65.79
2022-12-11T21:09:00.192Z,65.54
2022-12-11T21:11:28.460Z,65.35
2022-12-11T21:13:56.434Z,65.50
2022-12-11T21:16:25.925Z,65.41
2022-12-11T21:18:53.767Z,65.11
2022-12-11T21:21:21.574Z,65.24
2022-12-11T21:23:49.341Z,66.41
2022-12-11T21:26:17.113Z,66.64
2022-12-11T21:28:44.893Z,66.18
2022-12-11T21:31:15.773Z,66.01
2022-12-11T21:33:45.351Z,66.10
2022-12-11T21:36:14.698Z,66.12
2022-12-11T21:38:44.386Z,66.40
2022-12-11T21:41:15.634Z,66.00
2022-12-11T21:44:14.543Z,65.83
2022-12-11T21:46:31.841Z,66.47
2022-12-11T21:49:00.885Z,66.96
2022-12-11T21:51:35.949Z,67.40
2022-12-11T21:54:05.451Z,67.35
2022-12-11T21:56:35.062Z,67.92
2022-12-11T21:59:03.163Z,68.38
2022-12-11T22:01:33.567Z,68.35
2022-12-11T22:04:03.365Z,68.65
2022-12-11T22:06:31.053Z,68.77
2022-12-11T22:08:58.796Z,68.61
2022-12-11T22:11:30.712Z,68.47
2022-12-11T22:13:59.055Z,68.60
2022-12-11T22:16:27.069Z,68.59
2022-12-11T22:18:54.842Z,68.02
2022-12-11T22:21:24.091Z,68.16
2022-12-11T22:23:52.060Z,68.31
2022-12-11T22:26:23.017Z,68.60
2022-12-11T22:28:51.327Z,69.27
2022-12-11T22:31:21.422Z,69.13
2022-12-11T22:33:50.532Z,69.54
2022-12-11T22:36:18.955Z,69.85
2022-12-11T22:38:48.106Z,69.86
2022-12-11T22:41:22.348Z,70.07
2022-12-11T22:43:50.516Z,70.06
2022-12-11T22:46:19.496Z,69.63
2022-12-11T22:48:47.300Z,69.05
2022-12-11T22:51:15.138Z,69.07
2022-12-11T22:53:42.980Z,69.21
2022-12-11T22:56:13.727Z,69.50
2022-12-11T22:58:41.907Z,69.55
2022-12-11T23:01:12.055Z,69.67
2022-12-11T23:03:39.868Z,69.81
2022-12-11T23:06:08.949Z,69.97
2022-12-11T23:08:36.867Z,70.62
2022-12-11T23:11:12.663Z,70.28
2022-12-11T23:13:40.522Z,69.84
2022-12-11T23:16:08.281Z,69.17
2022-12-11T23:18:36.490Z,68.58
2022-12-11T23:21:04.472Z,68.16
2022-12-11T23:23:32.187Z,67.45
2022-12-11T23:26:00.101Z,66.67
2022-12-11T23:28:29.190Z,65.94
2022-12-11T23:30:57.045Z,65.16
2022-12-11T23:33:24.773Z,65.04
2022-12-11T23:35:52.498Z,64.85
2022-12-11T23:38:20.290Z,64.78
2022-12-11T23:40:48.149Z,64.39
2022-12-11T23:43:16.227Z,64.47
2022-12-11T23:45:46.312Z,64.50
2022-12-11T23:48:14.616Z,64.62
2022-12-11T23:50:43.200Z,64.02
2022-12-11T23:53:12.133Z,64.97
2022-12-11T23:55:40.000Z,65.08
2022-12-11T23:58:08.188Z,64.82
